• Join FlightAware (Why Join?)
  • Login
  • US Flag 
02:10AM EDT


 

Airport Tracker/Info


-or-


 

Live Flight TrackerFlight Track Log ✈ LXJ342 ✈ 02-Jul-2013 ✈ KAPA - KASE

Flight Track Log - Related Links

Times and Time Zones

All times are in EDT time to prevent confusion due to time zone crossing. See the LXJ342 flight status page for this flight to view local times or setup timezone preferences in your user account.

Time Position Orientation Groundspeed Altitude Reporting Facility
EDT Latitude Longitude Course Direction KTS MPH feet Rate Location/Type
12:14PM 39.5500 -104.8500 229° Southwest 186 214 7,600  Level Denver TRACON
12:15PM 39.5167 -104.9000 229° Southwest 249 287 8,400 1,800 Climbing Denver TRACON
12:16PM 39.5500 -104.9833 297° West 232 267 11,200 1,740 Climbing Denver TRACON
12:17PM 39.5833 -105.0667 297° West 236 272 12,100 1,800 Climbing Denver TRACON
12:18PM 39.6000 -105.1500 285° West 258 297 14,800 3,000 Climbing Denver TRACON
12:19PM 39.6167 -105.2500 282° West 291 335 18,100 3,120 Climbing Denver TRACON
12:20PM 39.6269 -105.2939 287° West 291 335 19,500 2,280 Climbing Denver Center
12:21PM 39.6486 -105.4097 284° West 327 376 21,600 1,200 Climbing Denver Center
12:22PM 39.6781 -105.5561 285° West 388 447 22,000 180 Climbing Denver Center
12:23PM 39.6964 -105.6958 280° West 393 452 22,000  Level Denver Center
12:24PM 39.6764 -105.8236 259° West 357 411 22,000  Level Denver Center
12:25PM 39.6672 -105.9519 265° West 357 411 22,000 -300 Level Denver Center
12:26PM 39.6528 -106.0803 262° West 360 414 21,400 -900 Descending Denver Center
12:27PM 39.6392 -106.2058 262° West 353 406 20,200 -720 Descending Denver Center
12:28PM 39.6136 -106.3522 257° West 349 402 20,000 -120 Descending Denver Center
12:29PM 39.5756 -106.4722 248° West 359 413 20,000  Level Denver Center
12:30PM 39.5375 -106.5900 247° West 347 399 20,000  Level Denver Center
12:31PM 39.5036 -106.6956 247° West 333 383 20,000 -600 Level Denver Center
12:32PM 39.4828 -106.8278 259° West 335 386 18,800 -1,980 Descending Denver Center
12:33PM 39.4872 -106.9367 273° West 317 365 16,000 -2,400 Descending Denver Center
12:34PM 39.4222 -106.9869 211° Southwest 287 330 13,900 -2,160 Descending Denver Center
12:35PM 39.3608 -106.9661 165° South 245 282 11,600 -1,980 Descending Denver Center
12:36PM 39.3114 -106.9344 154° Southeast 220 253 9,900 -1,560 Descending Denver Center
12:37PM 39.2756 -106.8936 139° Southeast 191 220 8,400 -1,500 Descending Denver Center